createdAt,value
2017-07-01T00:00:12.343Z,3.90
2017-07-01T00:02:40.407Z,3.97
2017-07-01T00:05:08.846Z,3.70
2017-07-01T00:07:37.278Z,2.80
2017-07-01T00:10:05.731Z,2.83
2017-07-01T00:12:34.282Z,3.07
2017-07-01T00:15:02.770Z,2.77
2017-07-01T00:17:31.963Z,3.17
2017-07-01T00:20:00.656Z,2.40
2017-07-01T00:22:29.083Z,2.00
2017-07-01T00:24:57.499Z,2.50
2017-07-01T00:27:26.371Z,2.20
2017-07-01T00:29:54.812Z,2.50
2017-07-01T00:32:23.263Z,2.37
2017-07-01T00:34:52.472Z,1.93
2017-07-01T00:37:21.653Z,2.00
2017-07-01T00:39:50.867Z,2.47
2017-07-01T00:42:19.303Z,1.90
2017-07-01T00:44:47.887Z,2.33
2017-07-01T00:47:16.421Z,2.20
2017-07-01T00:49:44.859Z,1.80
2017-07-01T00:52:12.966Z,2.33
2017-07-01T00:54:42.171Z,1.90
2017-07-01T00:57:10.619Z,2.17
2017-07-01T00:59:38.728Z,2.00
2017-07-01T01:02:06.812Z,1.80
2017-07-01T01:04:35.245Z,1.57
2017-07-01T01:07:03.318Z,1.70
2017-07-01T01:09:31.415Z,1.60
2017-07-01T01:12:00.623Z,1.40
2017-07-01T01:14:28.730Z,1.90
2017-07-01T01:16:57.151Z,1.60
2017-07-01T01:19:25.232Z,1.50
2017-07-01T01:21:53.831Z,1.50
2017-07-01T01:24:23.030Z,1.50
2017-07-01T01:26:52.231Z,1.33
2017-07-01T01:29:21.084Z,1.40
2017-07-01T01:31:49.182Z,1.00
2017-07-01T01:34:17.683Z,1.53
2017-07-01T01:36:46.183Z,1.20
2017-07-01T01:39:14.623Z,1.00
2017-07-01T01:41:42.422Z,1.03
2017-07-01T01:44:10.175Z,1.37
2017-07-01T01:46:39.011Z,0.97
2017-07-01T01:49:06.739Z,0.90
2017-07-01T01:51:34.495Z,1.03
2017-07-01T01:54:03.082Z,1.07
2017-07-01T01:56:30.835Z,1.07
2017-07-01T01:59:00.099Z,1.00
2017-07-01T02:01:27.902Z,0.83
2017-07-01T02:03:56.399Z,0.70
2017-07-01T02:06:24.152Z,0.73
2017-07-01T02:08:53.394Z,0.70
2017-07-01T02:11:21.108Z,0.73
2017-07-01T02:13:48.854Z,0.80
2017-07-01T02:16:43.184Z,0.80
2017-07-01T02:19:11.695Z,0.67
2017-07-01T02:21:47.500Z,0.60
2017-07-01T02:24:15.250Z,0.70
2017-07-01T02:26:42.982Z,0.60
2017-07-01T02:29:20.661Z,0.57
2017-07-01T02:31:48.375Z,0.60
2017-07-01T02:34:17.767Z,0.80
2017-07-01T02:36:56.301Z,0.70
2017-07-01T02:39:34.803Z,0.70
2017-07-01T02:42:02.535Z,0.73
2017-07-01T02:44:30.313Z,0.73
2017-07-01T02:47:07.938Z,0.63
2017-07-01T02:49:43.583Z,0.67
2017-07-01T02:52:14.375Z,0.63
2017-07-01T02:55:00.970Z,0.60
2017-07-01T02:57:29.467Z,0.70
2017-07-01T02:59:57.206Z,0.50
2017-07-01T03:02:30.514Z,0.60
2017-07-01T03:04:59.014Z,0.60
2017-07-01T03:07:26.771Z,0.60
2017-07-01T03:09:54.527Z,0.60
2017-07-01T03:12:23.110Z,0.50
2017-07-01T03:14:51.616Z,0.60
2017-07-01T03:17:19.342Z,0.53
2017-07-01T03:19:47.134Z,0.67
2017-07-01T03:22:15.637Z,0.50
2017-07-01T03:24:43.373Z,0.50
2017-07-01T03:27:12.204Z,0.60
2017-07-01T03:29:39.936Z,0.70
2017-07-01T03:32:08.452Z,0.60
2017-07-01T03:34:36.193Z,0.50
2017-07-01T03:37:20.502Z,0.60
2017-07-01T03:40:00.109Z,0.60
2017-07-01T03:42:47.415Z,0.67
2017-07-01T03:45:21.926Z,0.70
2017-07-01T03:47:53.078Z,0.50
2017-07-01T03:50:20.823Z,0.50
2017-07-01T03:52:48.552Z,0.70
2017-07-01T03:55:16.791Z,0.60
2017-07-01T03:57:44.531Z,0.80
2017-07-01T04:00:12.078Z,0.50
2017-07-01T04:02:39.835Z,0.50
2017-07-01T04:05:07.581Z,0.53
2017-07-01T04:07:35.397Z,0.50
2017-07-01T04:10:03.918Z,0.67
2017-07-01T04:12:31.651Z,0.60
2017-07-01T04:14:59.387Z,0.50
2017-07-01T04:17:27.141Z,0.53
2017-07-01T04:19:55.800Z,0.50
2017-07-01T04:22:39.319Z,0.43
2017-07-01T04:25:07.055Z,0.60
2017-07-01T04:27:42.314Z,0.40
2017-07-01T04:30:10.056Z,0.50
2017-07-01T04:32:38.559Z,0.53
2017-07-01T04:35:06.307Z,0.50
2017-07-01T04:37:34.798Z,0.50
2017-07-01T04:40:16.951Z,0.50
2017-07-01T04:42:47.393Z,0.50
2017-07-01T04:45:25.027Z,0.50
2017-07-01T04:47:55.254Z,0.60
2017-07-01T04:50:35.423Z,0.60
2017-07-01T04:53:03.174Z,0.60
2017-07-01T04:55:31.675Z,0.60
2017-07-01T04:57:59.530Z,1.10
2017-07-01T05:00:43.180Z,0.60
2017-07-01T05:03:11.607Z,0.50
2017-07-01T05:05:49.111Z,0.47
2017-07-01T05:08:25.630Z,0.60
2017-07-01T05:10:57.025Z,0.70
2017-07-01T05:13:24.930Z,1.07
2017-07-01T05:15:54.184Z,0.50
2017-07-01T05:18:21.937Z,0.60
2017-07-01T05:20:52.198Z,0.50
2017-07-01T05:23:25.407Z,0.53
2017-07-01T05:26:09.627Z,0.60
2017-07-01T05:28:38.460Z,0.60
2017-07-01T05:31:09.231Z,0.50
2017-07-01T05:33:41.641Z,0.60
2017-07-01T05:36:19.124Z,0.50
2017-07-01T05:39:05.587Z,0.60
2017-07-01T05:41:34.079Z,0.50
2017-07-01T05:44:03.483Z,0.50
2017-07-01T05:46:37.146Z,0.40
2017-07-01T05:49:20.506Z,0.40
2017-07-01T05:51:50.142Z,0.40
2017-07-01T05:54:24.810Z,0.40
2017-07-01T05:56:52.543Z,0.47
2017-07-01T05:59:47.855Z,0.50
2017-07-01T06:02:23.536Z,0.50
2017-07-01T06:04:52.041Z,0.50
2017-07-01T06:07:19.774Z,0.50
2017-07-01T06:10:11.227Z,0.50
2017-07-01T06:12:41.739Z,0.40
2017-07-01T06:18:40.576Z,0.43
2017-07-01T06:21:27.238Z,0.47
2017-07-01T06:24:01.551Z,0.40
2017-07-01T06:26:38.923Z,0.50
2017-07-01T06:29:30.242Z,0.60
2017-07-01T06:32:06.371Z,0.70
2017-07-01T06:34:56.159Z,0.40
2017-07-01T06:37:34.171Z,0.67
2017-07-01T06:40:02.307Z,0.47
2017-07-01T06:42:37.198Z,0.47
2017-07-01T06:45:05.344Z,0.50
2017-07-01T06:47:33.840Z,0.60
2017-07-01T06:50:01.984Z,0.50
2017-07-01T06:52:29.731Z,0.60
2017-07-01T06:54:58.240Z,0.80
2017-07-01T06:57:25.975Z,0.50
2017-07-01T06:59:54.539Z,0.67
2017-07-01T07:02:22.669Z,0.60
2017-07-01T07:04:50.786Z,0.60
2017-07-01T07:07:18.543Z,0.50
2017-07-01T07:09:46.096Z,0.50
2017-07-01T07:12:13.823Z,0.50
2017-07-01T07:14:41.602Z,0.67
2017-07-01T07:17:10.098Z,0.50
2017-07-01T07:19:37.862Z,0.80
2017-07-01T07:22:05.624Z,0.63
2017-07-01T07:24:33.376Z,0.60
2017-07-01T07:27:01.143Z,0.53
2017-07-01T07:29:28.896Z,0.60
2017-07-01T07:31:56.615Z,0.67
2017-07-01T07:34:24.744Z,0.70
2017-07-01T07:36:52.515Z,0.60
2017-07-01T07:39:20.060Z,0.70
2017-07-01T07:41:49.087Z,0.60
2017-07-01T07:44:17.514Z,0.80
2017-07-01T07:46:45.963Z,0.60
2017-07-01T07:49:14.414Z,0.70
2017-07-01T07:51:42.853Z,0.60
2017-07-01T07:54:11.295Z,0.60
2017-07-01T07:56:39.743Z,0.60
2017-07-01T07:59:09.154Z,0.63
2017-07-01T08:01:38.382Z,0.50
2017-07-01T08:04:06.838Z,0.80
2017-07-01T08:06:36.065Z,0.70
2017-07-01T08:09:05.251Z,0.50
2017-07-01T08:11:33.680Z,0.63
2017-07-01T08:14:02.104Z,0.53
2017-07-01T08:16:30.531Z,0.60
2017-07-01T08:18:59.068Z,0.70
2017-07-01T08:21:28.270Z,0.53
2017-07-01T08:23:57.467Z,0.40
2017-07-01T08:26:25.895Z,0.60
2017-07-01T08:28:54.336Z,0.53
2017-07-01T08:31:22.779Z,0.70
2017-07-01T08:33:51.209Z,0.60
2017-07-01T08:36:19.378Z,0.60
2017-07-01T08:38:47.807Z,0.73
2017-07-01T08:41:16.263Z,0.70
2017-07-01T08:43:44.706Z,0.73
2017-07-01T08:46:13.918Z,0.60
2017-07-01T08:48:42.370Z,0.50
2017-07-01T08:51:10.820Z,0.60
2017-07-01T08:53:39.243Z,0.50
2017-07-01T08:56:08.463Z,0.60
2017-07-01T08:58:36.898Z,0.67
2017-07-01T09:01:05.419Z,0.70
2017-07-01T09:03:33.858Z,0.83
2017-07-01T09:06:02.309Z,0.57
2017-07-01T09:08:30.731Z,0.80
2017-07-01T09:10:59.171Z,0.70
2017-07-01T09:13:27.599Z,0.50
2017-07-01T09:15:56.052Z,0.47
2017-07-01T09:18:24.483Z,0.60
2017-07-01T09:20:52.972Z,0.50
2017-07-01T09:23:21.387Z,0.53
2017-07-01T09:25:49.835Z,0.70
2017-07-01T09:28:18.258Z,0.70
2017-07-01T09:30:46.679Z,0.70
2017-07-01T09:33:15.207Z,0.83
2017-07-01T09:35:44.314Z,0.90
2017-07-01T09:38:12.780Z,1.70
2017-07-01T09:40:41.231Z,0.60
2017-07-01T09:43:09.693Z,0.63
2017-07-01T09:45:38.109Z,0.83
2017-07-01T09:48:06.555Z,0.67
2017-07-01T09:50:35.004Z,0.70
2017-07-01T09:53:03.475Z,0.50
2017-07-01T09:55:31.900Z,0.67
2017-07-01T09:58:00.351Z,0.80
2017-07-01T10:00:28.774Z,0.80
2017-07-01T10:02:57.274Z,0.70
2017-07-01T10:05:25.701Z,0.50
2017-07-01T10:07:54.122Z,0.70
2017-07-01T10:10:22.570Z,0.80
2017-07-01T10:12:50.999Z,0.60
2017-07-01T10:15:19.467Z,0.50
2017-07-01T10:17:47.907Z,0.60
2017-07-01T10:20:16.366Z,0.50
2017-07-01T10:22:44.792Z,0.60
2017-07-01T10:25:13.226Z,0.50
2017-07-01T10:27:41.678Z,0.60
2017-07-01T10:30:10.096Z,0.60
2017-07-01T10:32:38.563Z,0.77
2017-07-01T10:35:06.995Z,0.50
2017-07-01T10:37:35.114Z,0.60
2017-07-01T10:40:03.532Z,0.50
2017-07-01T10:42:31.977Z,0.70
2017-07-01T10:45:00.419Z,0.60
2017-07-01T10:47:28.842Z,0.60
2017-07-01T10:49:57.283Z,0.60
2017-07-01T10:52:26.118Z,0.50
2017-07-01T10:54:54.956Z,0.60
2017-07-01T10:57:23.403Z,0.60
2017-07-01T10:59:52.323Z,0.63
2017-07-01T11:02:20.814Z,0.60
2017-07-01T11:04:49.263Z,0.50
2017-07-01T11:07:18.140Z,0.80
2017-07-01T11:09:46.823Z,0.70
2017-07-01T11:12:15.271Z,0.70
2017-07-01T11:14:43.739Z,0.80
2017-07-01T11:17:12.714Z,0.73
2017-07-01T11:19:41.148Z,0.60
2017-07-01T11:22:10.383Z,0.70
2017-07-01T11:24:38.956Z,0.70
2017-07-01T11:27:07.394Z,0.50
2017-07-01T11:29:35.839Z,0.50
2017-07-01T11:32:04.800Z,1.60
2017-07-01T11:34:33.635Z,0.70
2017-07-01T11:37:02.068Z,0.60
2017-07-01T11:39:30.498Z,0.70
2017-07-01T11:41:58.942Z,1.30
2017-07-01T11:44:27.410Z,2.17
2017-07-01T11:46:56.976Z,0.90
2017-07-01T11:49:25.569Z,1.80
2017-07-01T11:51:54.042Z,1.00
2017-07-01T11:54:22.485Z,0.80
2017-07-01T11:56:51.030Z,1.13
2017-07-01T11:59:19.879Z,0.67
2017-07-01T12:01:49.117Z,0.80
2017-07-01T12:04:17.678Z,0.70
2017-07-01T12:06:46.134Z,1.00
2017-07-01T12:09:14.587Z,0.80
2017-07-01T12:11:43.038Z,0.67
2017-07-01T12:14:12.245Z,0.70
2017-07-01T12:16:40.668Z,0.70
2017-07-01T12:19:09.107Z,0.60
2017-07-01T12:21:37.608Z,0.90
2017-07-01T12:24:06.052Z,0.83
2017-07-01T12:26:34.503Z,0.77
2017-07-01T12:29:04.117Z,0.57
2017-07-01T12:31:32.699Z,0.80
2017-07-01T12:34:01.579Z,1.00
2017-07-01T12:36:30.811Z,0.90
2017-07-01T12:38:59.619Z,0.60
2017-07-01T12:41:28.436Z,0.67
2017-07-01T12:43:56.894Z,0.60
2017-07-01T12:46:26.075Z,0.83
2017-07-01T12:48:54.510Z,0.70
2017-07-01T12:51:23.694Z,0.60
2017-07-01T12:53:52.900Z,0.70
2017-07-01T12:56:21.741Z,0.70
2017-07-01T12:58:50.561Z,0.70
2017-07-01T13:01:19.767Z,0.60
2017-07-01T13:03:48.978Z,0.50
2017-07-01T13:06:17.448Z,0.63
2017-07-01T13:08:45.879Z,0.60
2017-07-01T13:11:14.355Z,0.80
2017-07-01T13:13:42.795Z,0.70
2017-07-01T13:16:11.647Z,0.67
2017-07-01T13:18:40.922Z,0.77
2017-07-01T13:21:09.755Z,0.70
2017-07-01T13:23:38.183Z,0.60
2017-07-01T13:26:06.653Z,0.60
2017-07-01T13:28:35.086Z,0.70
2017-07-01T13:31:03.505Z,0.60
2017-07-01T13:33:31.967Z,0.60
2017-07-01T13:36:00.439Z,0.63
2017-07-01T13:38:28.879Z,0.60
2017-07-01T13:40:57.726Z,0.60
2017-07-01T13:43:26.164Z,0.50
2017-07-01T13:45:54.602Z,0.67
2017-07-01T13:48:23.043Z,0.57
2017-07-01T13:50:52.267Z,0.60
2017-07-01T13:53:21.464Z,0.70
2017-07-01T13:55:49.935Z,0.60
2017-07-01T13:58:19.174Z,0.60
2017-07-01T14:00:48.000Z,0.50
2017-07-01T14:03:16.427Z,0.60
2017-07-01T14:05:44.878Z,0.53
2017-07-01T14:08:13.348Z,0.50
2017-07-01T14:10:42.193Z,0.77
2017-07-01T14:13:10.634Z,0.53
2017-07-01T14:15:39.227Z,0.50
2017-07-01T14:18:07.685Z,0.80
2017-07-01T14:20:36.547Z,0.73
2017-07-01T14:23:04.997Z,0.90
2017-07-01T14:25:33.522Z,0.77
2017-07-01T14:28:02.359Z,0.60
2017-07-01T14:30:30.795Z,0.60
2017-07-01T14:32:59.253Z,0.60
2017-07-01T14:35:28.455Z,0.60
2017-07-01T14:37:57.672Z,0.80
2017-07-01T14:40:26.164Z,0.50
2017-07-01T14:42:54.579Z,0.70
2017-07-01T14:45:23.413Z,0.57
2017-07-01T14:47:52.612Z,0.50
2017-07-01T14:50:21.844Z,0.60
2017-07-01T14:52:50.274Z,1.10
2017-07-01T14:55:19.142Z,0.70
2017-07-01T14:57:48.075Z,0.60
2017-07-01T15:00:17.283Z,0.70
2017-07-01T15:02:46.118Z,0.70
2017-07-01T15:05:14.539Z,0.90
2017-07-01T15:07:43.766Z,0.50
2017-07-01T15:10:12.202Z,0.70
2017-07-01T15:12:41.060Z,0.80
2017-07-01T15:15:10.240Z,0.80
2017-07-01T15:17:38.689Z,1.73
2017-07-01T15:20:07.897Z,1.00
2017-07-01T15:22:36.751Z,3.67
2017-07-01T15:25:05.204Z,1.90
2017-07-01T15:27:33.628Z,0.83
2017-07-01T15:30:02.107Z,1.10
2017-07-01T15:32:30.528Z,0.70
2017-07-01T15:34:59.019Z,0.50
2017-07-01T15:37:27.468Z,0.77
2017-07-01T15:39:55.902Z,0.70
2017-07-01T15:42:24.352Z,0.70
2017-07-01T15:44:53.169Z,0.70
2017-07-01T15:47:21.599Z,0.70
2017-07-01T15:49:50.415Z,0.60
2017-07-01T15:52:18.834Z,0.70
2017-07-01T15:54:47.302Z,0.50
2017-07-01T15:57:15.819Z,0.60
2017-07-01T15:59:44.291Z,0.50
2017-07-01T16:02:12.779Z,0.60
2017-07-01T16:04:41.232Z,0.70
2017-07-01T16:07:09.772Z,0.70
2017-07-01T16:09:39.243Z,0.70
2017-07-01T16:12:08.078Z,0.70
2017-07-01T16:14:36.495Z,0.60
2017-07-01T16:17:04.948Z,0.70
2017-07-01T16:19:33.379Z,0.60
2017-07-01T16:22:01.842Z,0.50
2017-07-01T16:24:30.262Z,0.60
2017-07-01T16:26:58.723Z,0.70
2017-07-01T16:29:27.567Z,0.60
2017-07-01T16:31:56.002Z,0.70
2017-07-01T16:34:24.455Z,0.90
2017-07-01T16:36:52.923Z,0.60
2017-07-01T16:39:21.351Z,0.67
2017-07-01T16:41:49.778Z,0.80
2017-07-01T16:44:18.232Z,0.70
2017-07-01T16:46:47.346Z,0.80
2017-07-01T16:49:16.195Z,0.80
2017-07-01T16:51:44.649Z,0.70
2017-07-01T16:54:13.104Z,0.80
2017-07-01T16:56:41.578Z,1.07
2017-07-01T16:59:10.038Z,0.80
2017-07-01T17:01:38.469Z,1.03
2017-07-01T17:04:07.327Z,1.20
2017-07-01T17:06:35.785Z,1.00
2017-07-01T17:09:03.531Z,1.20
2017-07-01T17:11:32.007Z,0.77
2017-07-01T17:14:00.841Z,1.00
2017-07-01T17:16:29.331Z,0.70
2017-07-01T17:18:57.760Z,0.90
2017-07-01T17:21:26.216Z,0.90
2017-07-01T17:23:55.048Z,0.80
2017-07-01T17:26:23.489Z,0.73
2017-07-01T17:28:51.978Z,0.97
2017-07-01T17:31:20.459Z,0.80
2017-07-01T17:33:48.902Z,0.80
2017-07-01T17:36:17.364Z,1.13
2017-07-01T17:38:45.792Z,0.80
2017-07-01T17:41:14.263Z,0.80
2017-07-01T17:43:42.687Z,0.83
2017-07-01T17:46:11.113Z,0.80
2017-07-01T17:48:39.599Z,0.90
2017-07-01T17:51:08.019Z,0.80
2017-07-01T17:53:36.486Z,0.83
2017-07-01T17:56:04.962Z,0.80
2017-07-01T17:58:33.446Z,1.00
2017-07-01T18:01:01.889Z,0.70
2017-07-01T18:03:30.444Z,0.97
2017-07-01T18:05:58.893Z,1.20
2017-07-01T18:08:27.331Z,1.40
2017-07-01T18:10:55.810Z,0.97
2017-07-01T18:13:24.262Z,0.80
2017-07-01T18:15:52.734Z,0.70
2017-07-01T18:18:21.169Z,1.10
2017-07-01T18:20:51.110Z,0.83
2017-07-01T18:23:20.312Z,0.90
2017-07-01T18:25:49.511Z,1.20
2017-07-01T18:28:17.960Z,1.20
2017-07-01T18:30:46.427Z,1.10
2017-07-01T18:33:15.259Z,1.97
2017-07-01T18:35:44.497Z,2.13
2017-07-01T18:38:12.929Z,1.80
2017-07-01T18:40:41.379Z,2.10
2017-07-01T18:43:10.245Z,1.60
2017-07-01T18:45:38.701Z,1.93
2017-07-01T18:48:07.903Z,1.77
2017-07-01T18:50:36.732Z,1.60
2017-07-01T18:53:05.188Z,1.20
2017-07-01T18:55:34.394Z,1.40
2017-07-01T18:58:03.661Z,1.20
2017-07-01T19:00:32.491Z,2.20
2017-07-01T19:03:01.696Z,3.33
2017-07-01T19:05:31.316Z,2.50
2017-07-01T19:08:00.519Z,2.00
2017-07-01T19:10:28.977Z,1.73
2017-07-01T19:12:58.590Z,1.83
2017-07-01T19:15:28.198Z,1.67
2017-07-01T19:17:57.448Z,1.60
2017-07-01T19:20:26.295Z,1.30
2017-07-01T19:22:55.539Z,1.30
2017-07-01T19:25:24.820Z,1.20
2017-07-01T19:27:54.912Z,1.90
2017-07-01T19:30:23.427Z,1.70
2017-07-01T19:32:53.411Z,1.60
2017-07-01T19:35:21.895Z,2.60
2017-07-01T19:37:50.323Z,3.13
2017-07-01T19:40:19.259Z,2.97
2017-07-01T19:42:48.840Z,1.80
2017-07-01T19:45:18.073Z,1.60
2017-07-01T19:47:46.946Z,1.70
2017-07-01T19:50:16.143Z,1.43
2017-07-01T19:52:45.391Z,1.30
2017-07-01T19:55:14.631Z,1.10
2017-07-01T19:57:43.527Z,1.50
2017-07-01T20:00:12.352Z,1.43
2017-07-01T20:02:40.795Z,1.33
2017-07-01T20:05:10.021Z,1.03
2017-07-01T20:07:38.499Z,1.27
2017-07-01T20:10:07.065Z,1.30
2017-07-01T20:12:36.908Z,1.10
2017-07-01T20:15:05.367Z,1.20
2017-07-01T20:17:34.241Z,1.20
2017-07-01T20:20:02.670Z,1.03
2017-07-01T20:22:31.107Z,1.00
2017-07-01T20:24:59.590Z,1.30
2017-07-01T20:27:28.027Z,1.40
2017-07-01T20:29:56.472Z,1.13
2017-07-01T20:32:24.883Z,1.20
2017-07-01T20:34:53.411Z,1.30
2017-07-01T20:37:21.860Z,1.23
2017-07-01T20:39:50.311Z,1.07
2017-07-01T20:42:18.746Z,1.40
2017-07-01T20:44:47.207Z,1.30
2017-07-01T20:47:15.647Z,1.20
2017-07-01T20:49:44.082Z,1.40
2017-07-01T20:52:12.524Z,1.30
2017-07-01T20:54:40.955Z,1.23
2017-07-01T20:57:09.493Z,1.23
2017-07-01T20:59:37.936Z,1.10
2017-07-01T21:02:06.355Z,1.40
2017-07-01T21:04:34.804Z,1.20
2017-07-01T21:07:03.230Z,1.40
2017-07-01T21:09:31.659Z,1.20
2017-07-01T21:12:00.104Z,1.30
2017-07-01T21:14:28.542Z,1.47
2017-07-01T21:16:57.036Z,1.60
2017-07-01T21:19:25.467Z,1.40
2017-07-01T21:21:53.915Z,1.60
2017-07-01T21:24:23.096Z,1.60
2017-07-01T21:26:51.562Z,1.70
2017-07-01T21:29:20.865Z,1.47
2017-07-01T21:31:49.976Z,2.10
2017-07-01T21:34:18.428Z,1.87
2017-07-01T21:36:47.614Z,1.60
2017-07-01T21:39:16.063Z,1.83
2017-07-01T21:41:44.511Z,1.57
2017-07-01T21:44:12.950Z,2.10
2017-07-01T21:46:41.401Z,1.90
2017-07-01T21:49:09.829Z,1.83
2017-07-01T21:51:38.279Z,1.63
2017-07-01T21:54:06.827Z,1.70
2017-07-01T21:56:35.269Z,1.60
2017-07-01T21:59:03.709Z,1.37
2017-07-01T22:01:32.220Z,1.17
2017-07-01T22:04:00.651Z,1.33
2017-07-01T22:06:29.115Z,1.50
2017-07-01T22:08:57.532Z,1.50
2017-07-01T22:11:25.967Z,1.40
2017-07-01T22:13:55.168Z,1.47
2017-07-01T22:16:24.305Z,1.57
2017-07-01T22:18:52.727Z,1.40
2017-07-01T22:21:21.185Z,1.63
2017-07-01T22:23:49.607Z,1.53
2017-07-01T22:26:18.829Z,1.43
2017-07-01T22:28:47.254Z,1.67
2017-07-01T22:31:15.680Z,1.40
2017-07-01T22:33:44.887Z,1.30
2017-07-01T22:36:13.310Z,1.70
2017-07-01T22:38:41.764Z,1.50
2017-07-01T22:41:10.291Z,1.27
2017-07-01T22:43:38.848Z,1.53
2017-07-01T22:46:07.287Z,1.50
2017-07-01T22:48:36.479Z,1.40
2017-07-01T22:51:05.685Z,1.40
2017-07-01T22:53:34.875Z,1.30
2017-07-01T22:56:03.327Z,1.47
2017-07-01T22:58:31.751Z,1.33
2017-07-01T23:01:00.967Z,1.40
2017-07-01T23:03:29.420Z,1.10
2017-07-01T23:05:58.810Z,1.07
2017-07-01T23:08:27.255Z,1.50
2017-07-01T23:10:55.685Z,1.23
2017-07-01T23:13:24.114Z,1.10
2017-07-01T23:15:52.588Z,1.30
2017-07-01T23:18:21.147Z,1.17
2017-07-01T23:20:50.367Z,1.70
2017-07-01T23:23:18.791Z,1.47
2017-07-01T23:25:47.318Z,1.23
2017-07-01T23:28:15.756Z,1.33
2017-07-01T23:30:44.191Z,1.50
2017-07-01T23:33:12.645Z,1.40
2017-07-01T23:35:41.076Z,1.43
2017-07-01T23:38:09.536Z,1.17
2017-07-01T23:40:37.961Z,1.20
2017-07-01T23:43:06.403Z,1.10
2017-07-01T23:45:34.853Z,1.33
2017-07-01T23:48:04.103Z,1.33
2017-07-01T23:50:32.539Z,1.00
2017-07-01T23:53:01.719Z,1.00
2017-07-01T23:55:30.159Z,1.30
2017-07-01T23:57:58.623Z,1.03
